Time,TemperatureF,DewpointF,PressureIn,WindDirection,WindDirectionDegrees,WindSpeedMPH,WindSpeedGustMPH,Humidity,HourlyPrecipIn,Conditions,Clouds,dailyrainin,SolarRadiationWatts/m^2,SoftwareType,DateUTC
2013-08-13 00:02:00,54.0,46.0,-100.00,North,9,1.0,7.0,73,0.00,,,0.00,0.000000,,2013-08-13 05:02:00,
2013-08-13 00:42:00,53.0,45.0,-100.00,NNE,19,1.0,2.0,74,0.00,,,0.00,0.000000,,2013-08-13 05:42:00,
2013-08-13 00:52:00,53.0,45.0,-100.00,NNE,19,1.0,2.0,74,0.00,,,0.00,0.000000,,2013-08-13 05:52:00,
2013-08-13 01:02:00,53.0,45.0,-100.00,NNE,19,1.0,2.0,74,0.00,,,0.00,0.000000,,2013-08-13 06:02:00,
2013-08-13 01:42:00,52.0,45.0,-100.00,NNE,20,1.0,4.0,76,0.00,,,0.00,0.000000,,2013-08-13 06:42:00,
2013-08-13 01:52:00,52.0,45.0,-100.00,NNE,20,1.0,4.0,76,0.00,,,0.00,0.000000,,2013-08-13 06:52:00,
2013-08-13 02:01:00,52.0,45.0,-100.00,NNE,20,1.0,4.0,76,0.00,,,0.00,0.000000,,2013-08-13 07:01:00,
2013-08-13 02:42:00,50.0,44.0,-100.00,WNW,303,2.0,4.0,80,0.00,,,0.00,0.000000,,2013-08-13 07:42:00,
2013-08-13 02:52:00,50.0,44.0,-100.00,WNW,303,2.0,4.0,80,0.00,,,0.00,0.000000,,2013-08-13 07:52:00,
2013-08-13 03:02:00,50.0,44.0,-100.00,WNW,303,2.0,4.0,80,0.00,,,0.00,0.000000,,2013-08-13 08:02:00,
2013-08-13 03:42:00,49.0,45.0,-100.00,WNW,295,3.0,5.0,87,0.00,,,0.00,0.000000,,2013-08-13 08:42:00,
2013-08-13 03:52:00,49.0,45.0,-100.00,WNW,295,3.0,5.0,87,0.00,,,0.00,0.000000,,2013-08-13 08:52:00,
2013-08-13 04:01:00,49.0,45.0,-100.00,WNW,295,3.0,5.0,87,0.00,,,0.00,0.000000,,2013-08-13 09:01:00,
2013-08-13 04:43:00,49.0,46.0,-100.00,WNW,295,3.0,5.0,88,0.00,,,0.00,0.000000,,2013-08-13 09:43:00,
2013-08-13 04:54:00,49.0,46.0,-100.00,WNW,295,3.0,5.0,88,0.00,,,0.00,0.000000,,2013-08-13 09:54:00,
2013-08-13 05:03:00,49.0,46.0,-100.00,WNW,295,3.0,5.0,88,0.00,,,0.00,0.000000,,2013-08-13 10:03:00,
2013-08-13 05:43:00,49.0,46.0,-100.00,NNW,335,3.0,6.0,89,0.00,,,0.00,0.000000,,2013-08-13 10:43:00,
2013-08-13 05:53:00,49.0,46.0,-100.00,NNW,335,3.0,6.0,89,0.00,,,0.00,0.000000,,2013-08-13 10:53:00,
2013-08-13 06:02:00,49.0,46.0,-100.00,NNW,335,3.0,6.0,89,0.00,,,0.00,0.000000,,2013-08-13 11:02:00,
2013-08-13 06:42:00,51.0,47.0,-100.00,NNW,338,3.0,5.0,86,0.00,,,0.00,0.000000,,2013-08-13 11:42:00,
2013-08-13 06:52:00,51.0,47.0,-100.00,NNW,338,3.0,5.0,86,0.00,,,0.00,0.000000,,2013-08-13 11:52:00,
2013-08-13 07:01:00,51.0,47.0,-100.00,NNW,338,3.0,5.0,86,0.00,,,0.00,0.000000,,2013-08-13 12:01:00,
2013-08-13 07:21:00,50.0,48.0,-100.00,NW,318,3.0,5.0,92,0.00,,,0.00,34.000000,,2013-08-13 12:21:00,
2013-08-13 07:32:00,50.0,48.0,-100.00,NW,318,3.0,5.0,92,0.00,,,0.00,34.000000,,2013-08-13 12:32:00,
2013-08-13 07:42:00,50.0,48.0,-100.00,NW,318,3.0,5.0,92,0.00,,,0.00,34.000000,,2013-08-13 12:42:00,
2013-08-13 07:52:00,50.0,48.0,-100.00,NW,318,3.0,5.0,92,0.00,,,0.00,34.000000,,2013-08-13 12:52:00,
2013-08-13 08:01:00,50.0,48.0,-100.00,NW,318,3.0,5.0,92,0.00,,,0.00,34.000000,,2013-08-13 13:01:00,
2013-08-13 08:52:00,57.0,51.0,-100.00,North,7,4.0,6.0,80,0.00,,,0.00,247.000000,,2013-08-13 13:52:00,
2013-08-13 09:02:00,57.0,51.0,-100.00,North,7,4.0,6.0,80,0.00,,,0.00,247.000000,,2013-08-13 14:02:00,
2013-08-13 09:42:00,60.0,49.0,-100.00,NE,53,5.0,10.0,66,0.00,,,0.00,443.000000,,2013-08-13 14:42:00,
2013-08-13 09:52:00,60.0,49.0,-100.00,NE,53,5.0,10.0,66,0.00,,,0.00,443.000000,,2013-08-13 14:52:00,
2013-08-13 10:02:00,60.0,49.0,-100.00,NE,53,5.0,10.0,66,0.00,,,0.00,443.000000,,2013-08-13 15:02:00,
2013-08-13 10:44:00,61.0,46.0,-100.00,NNE,26,4.0,10.0,57,0.00,,,0.00,577.000000,,2013-08-13 15:44:00,
2013-08-13 10:54:00,61.0,46.0,-100.00,NNE,26,4.0,10.0,57,0.00,,,0.00,577.000000,,2013-08-13 15:54:00,
2013-08-13 11:03:00,61.0,46.0,-100.00,NNE,26,4.0,10.0,57,0.00,,,0.00,577.000000,,2013-08-13 16:03:00,
2013-08-13 11:04:00,62.0,45.0,-100.00,NNE,31,4.0,10.0,53,0.00,,,0.00,501.000000,,2013-08-13 16:04:00,
2013-08-13 11:45:00,62.0,45.0,-100.00,NNE,31,4.0,10.0,53,0.00,,,0.00,501.000000,,2013-08-13 16:45:00,
2013-08-13 11:54:00,62.0,45.0,-100.00,NNE,31,4.0,10.0,53,0.00,,,0.00,501.000000,,2013-08-13 16:54:00,
2013-08-13 12:04:00,62.0,46.0,-100.00,NNE,26,5.0,10.0,55,0.00,,,0.00,398.000000,,2013-08-13 17:04:00,
2013-08-13 12:46:00,-999.0,-99.9,-100.00,NNE,26,5.0,10.0,-999,0.00,,,0.00,398.000000,,2013-08-13 17:46:00,
2013-08-13 12:56:00,62.0,46.0,-100.00,NNE,26,5.0,10.0,55,0.00,,,0.00,398.000000,,2013-08-13 17:56:00,
2013-08-13 13:04:00,62.0,46.0,-100.00,North,353,4.0,10.0,55,0.00,,,0.00,395.000000,,2013-08-13 18:04:00,
2013-08-13 13:25:00,62.0,46.0,-100.00,North,353,4.0,10.0,55,0.00,,,0.00,395.000000,,2013-08-13 18:25:00,
2013-08-13 13:37:00,62.0,46.0,-100.00,North,353,4.0,10.0,55,0.00,,,0.00,395.000000,,2013-08-13 18:37:00,
2013-08-13 13:44:00,62.0,46.0,-100.00,North,353,4.0,10.0,55,0.00,,,0.00,395.000000,,2013-08-13 18:44:00,
2013-08-13 13:56:00,62.0,46.0,-100.00,North,353,4.0,10.0,55,0.00,,,0.00,395.000000,,2013-08-13 18:56:00,
2013-08-13 14:04:00,64.0,45.0,-100.00,NNE,33,5.0,11.0,51,0.00,,,0.00,663.000000,,2013-08-13 19:04:00,
2013-08-13 14:44:00,64.0,45.0,-100.00,NNE,33,5.0,11.0,51,0.00,,,0.00,663.000000,,2013-08-13 19:44:00,
2013-08-13 14:55:00,64.0,45.0,-100.00,NNE,33,5.0,11.0,51,0.00,,,0.00,663.000000,,2013-08-13 19:55:00,
2013-08-13 15:22:00,64.0,47.0,-100.00,NNE,18,4.0,10.0,53,0.00,,,0.00,418.000000,,2013-08-13 20:22:00,
2013-08-13 15:32:00,64.0,47.0,-100.00,NNE,18,4.0,10.0,53,0.00,,,0.00,418.000000,,2013-08-13 20:32:00,
2013-08-13 15:45:00,64.0,47.0,-100.00,NNE,18,4.0,10.0,53,0.00,,,0.00,418.000000,,2013-08-13 20:45:00,
2013-08-13 15:53:00,64.0,47.0,-100.00,NNE,18,4.0,10.0,53,0.00,,,0.00,418.000000,,2013-08-13 20:53:00,
2013-08-13 16:01:00,64.0,47.0,-100.00,NNE,18,4.0,10.0,53,0.00,,,0.00,418.000000,,2013-08-13 21:01:00,
2013-08-13 16:04:00,63.0,43.0,-100.00,North,352,4.0,11.0,48,0.00,,,0.00,390.000000,,2013-08-13 21:04:00,
2013-08-13 16:46:00,63.0,43.0,-100.00,North,352,4.0,11.0,48,0.00,,,0.00,390.000000,,2013-08-13 21:46:00,
2013-08-13 16:54:00,63.0,43.0,-100.00,North,352,4.0,11.0,48,0.00,,,0.00,390.000000,,2013-08-13 21:54:00,
2013-08-13 17:23:00,63.0,44.0,-100.00,WNW,290,4.0,10.0,50,0.00,,,0.00,337.000000,,2013-08-13 22:23:00,
2013-08-13 17:35:00,63.0,44.0,-100.00,WNW,290,4.0,10.0,50,0.00,,,0.00,337.000000,,2013-08-13 22:35:00,
2013-08-13 17:50:00,63.0,44.0,-100.00,WNW,290,4.0,10.0,50,0.00,,,0.00,337.000000,,2013-08-13 22:50:00,
2013-08-13 17:57:00,63.0,44.0,-100.00,WNW,290,4.0,10.0,50,0.00,,,0.00,337.000000,,2013-08-13 22:57:00,
2013-08-13 18:03:00,63.0,44.0,-100.00,WNW,290,4.0,10.0,50,0.00,,,0.00,337.000000,,2013-08-13 23:03:00,
2013-08-13 18:47:00,63.0,46.0,-100.00,NW,314,4.0,9.0,53,0.00,,,0.00,256.000000,,2013-08-13 23:47:00,
2013-08-13 18:57:00,63.0,46.0,-100.00,NW,314,4.0,9.0,53,0.00,,,0.00,256.000000,,2013-08-13 23:57:00,
2013-08-13 19:03:00,63.0,46.0,-100.00,NW,314,4.0,9.0,53,0.00,,,0.00,256.000000,,2013-08-14 00:03:00,
2013-08-13 19:22:00,63.0,46.0,-100.00,WNW,300,4.0,7.0,53,0.00,,,0.00,313.000000,,2013-08-14 00:22:00,
2013-08-13 19:32:00,63.0,46.0,-100.00,WNW,300,4.0,7.0,53,0.00,,,0.00,313.000000,,2013-08-14 00:32:00,
2013-08-13 19:42:00,63.0,46.0,-100.00,WNW,300,4.0,7.0,53,0.00,,,0.00,313.000000,,2013-08-14 00:42:00,
2013-08-13 19:52:00,63.0,46.0,-100.00,WNW,300,4.0,7.0,53,0.00,,,0.00,313.000000,,2013-08-14 00:52:00,
2013-08-13 20:01:00,63.0,46.0,-100.00,WNW,300,4.0,7.0,53,0.00,,,0.00,313.000000,,2013-08-14 01:01:00,
2013-08-13 20:42:00,57.0,46.0,-100.00,NNE,31,1.0,5.0,67,0.00,,,0.00,72.000000,,2013-08-14 01:42:00,
2013-08-13 20:52:00,57.0,46.0,-100.00,NNE,31,1.0,5.0,67,0.00,,,0.00,72.000000,,2013-08-14 01:52:00,
2013-08-13 21:02:00,57.0,46.0,-100.00,NNE,31,1.0,5.0,67,0.00,,,0.00,72.000000,,2013-08-14 02:02:00,
2013-08-13 21:42:00,52.0,45.0,-100.00,NNE,23,2.0,5.0,78,0.00,,,0.00,5.000000,,2013-08-14 02:42:00,
2013-08-13 21:52:00,52.0,45.0,-100.00,NNE,23,2.0,5.0,78,0.00,,,0.00,5.000000,,2013-08-14 02:52:00,
2013-08-13 22:01:00,52.0,45.0,-100.00,NNE,23,2.0,5.0,78,0.00,,,0.00,5.000000,,2013-08-14 03:01:00,
2013-08-13 22:22:00,51.0,45.0,-100.00,ENE,60,3.0,5.0,79,0.00,,,0.00,0.000000,,2013-08-14 03:22:00,
2013-08-13 22:33:00,51.0,45.0,-100.00,ENE,60,3.0,5.0,79,0.00,,,0.00,0.000000,,2013-08-14 03:33:00,
2013-08-13 22:43:00,51.0,45.0,-100.00,ENE,60,3.0,5.0,79,0.00,,,0.00,0.000000,,2013-08-14 03:43:00,
2013-08-13 22:53:00,51.0,45.0,-100.00,ENE,60,3.0,5.0,79,0.00,,,0.00,0.000000,,2013-08-14 03:53:00,
2013-08-13 23:03:00,51.0,45.0,-100.00,ENE,60,3.0,5.0,79,0.00,,,0.00,0.000000,,2013-08-14 04:03:00,
2013-08-13 23:42:00,50.0,44.0,-100.00,SE,141,1.0,4.0,79,0.00,,,0.00,0.000000,,2013-08-14 04:42:00,
2013-08-13 23:52:00,50.0,44.0,-100.00,SE,141,1.0,4.0,79,0.00,,,0.00,0.000000,,2013-08-14 04:52:00,